Terminal Aerodrome Forecast
Issued by NWS

Home | Current Version | Previous Version | Text Only | Print | Product List | Glossary Off
Versions: 1 2 3 4 5 6 7 8 9 10 11 12 13 14 15 16 17

291
FTUS43 KMPX 062024 AAA
TAFAXN
TAF AMD
KAXN 062024Z 0620/0718 27025G33KT 2SM -SN BR VV012
      TEMPO 0620/0622 1/2SM SN FZFG VV006
     FM070000 28021G30KT P6SM OVC020
     FM070800 28018G26KT P6SM OVC040=

USA.gov is the U.S. government's official web portal to all federal, state and local government web resources and services.